createdAt,value
2022-09-18T00:03:33.194Z,74.22
2022-09-18T00:06:07.204Z,74.81
2022-09-18T00:08:38.326Z,74.82
2022-09-18T00:11:08.588Z,74.66
2022-09-18T00:13:40.302Z,74.53
2022-09-18T00:16:11.500Z,74.43
2022-09-18T00:18:40.403Z,74.54
2022-09-18T00:21:11.727Z,74.41
2022-09-18T00:23:40.812Z,74.58
2022-09-18T00:26:11.014Z,74.59
2022-09-18T00:28:40.169Z,75.03
2022-09-18T00:31:12.217Z,74.82
2022-09-18T00:33:41.779Z,74.72
2022-09-18T00:36:13.458Z,75.01
2022-09-18T00:38:42.172Z,74.51
2022-09-18T00:41:15.288Z,74.70
2022-09-18T00:43:44.817Z,74.80
2022-09-18T00:46:23.935Z,74.81
2022-09-18T00:49:05.167Z,75.16
2022-09-18T00:51:37.142Z,75.30
2022-09-18T00:54:14.731Z,74.73
2022-09-18T00:56:43.938Z,75.17
2022-09-18T00:59:15.439Z,75.84
2022-09-18T01:01:43.941Z,74.92
2022-09-18T01:04:13.454Z,75.76
2022-09-18T01:06:50.642Z,74.94
2022-09-18T01:09:30.905Z,74.94
2022-09-18T01:12:09.726Z,75.84
2022-09-18T01:14:44.223Z,75.03
2022-09-18T01:17:21.724Z,75.03
2022-09-18T01:20:25.447Z,75.77
2022-09-18T01:23:07.834Z,75.84
2022-09-18T01:25:49.372Z,76.14
2022-09-18T01:28:24.906Z,75.29
2022-09-18T01:30:57.931Z,76.05
2022-09-18T01:33:31.143Z,75.17
2022-09-18T01:36:03.027Z,75.82
2022-09-18T01:38:38.317Z,75.11
2022-09-18T01:41:12.601Z,75.76
2022-09-18T01:43:44.214Z,75.66
2022-09-18T01:46:19.648Z,75.21
2022-09-18T01:48:55.597Z,76.07
2022-09-18T01:51:29.642Z,75.96
2022-09-18T01:54:03.132Z,75.77
2022-09-18T01:56:37.173Z,75.45
2022-09-18T01:59:11.152Z,75.76
2022-09-18T02:01:53.863Z,76.17
2022-09-18T02:04:27.157Z,76.07
2022-09-18T02:07:03.348Z,75.38
2022-09-18T02:09:32.094Z,75.57
2022-09-18T02:12:05.559Z,75.36
2022-09-18T02:14:39.071Z,75.71
2022-09-18T02:17:32.382Z,76.20
2022-09-18T02:20:09.561Z,75.60
2022-09-18T02:22:41.121Z,76.43
2022-09-18T02:25:14.840Z,75.67
2022-09-18T02:27:42.925Z,75.96
2022-09-18T02:30:12.913Z,76.35
2022-09-18T02:32:41.740Z,75.60
2022-09-18T02:35:11.197Z,75.94
2022-09-18T02:37:54.539Z,76.37
2022-09-18T02:40:32.488Z,75.53
2022-09-18T02:43:18.392Z,75.85
2022-09-18T02:45:58.583Z,75.80
2022-09-18T02:48:47.273Z,75.73
2022-09-18T02:51:28.018Z,76.14
2022-09-18T02:54:04.067Z,75.51
2022-09-18T02:56:39.675Z,76.47
2022-09-18T02:59:12.723Z,75.75
2022-09-18T03:01:42.901Z,76.15
2022-09-18T03:04:13.687Z,76.22
2022-09-18T03:06:56.324Z,76.33
2022-09-18T03:09:26.407Z,75.90
2022-09-18T03:11:55.503Z,76.23
2022-09-18T03:14:23.975Z,75.85
2022-09-18T03:16:52.406Z,76.87
2022-09-18T03:19:21.325Z,76.10
2022-09-18T03:21:52.319Z,76.20
2022-09-18T03:24:24.860Z,76.33
2022-09-18T03:26:54.572Z,75.99
2022-09-18T03:29:25.855Z,76.97
2022-09-18T03:31:54.858Z,75.90
2022-09-18T03:34:24.174Z,77.00
2022-09-18T03:36:52.766Z,76.77
2022-09-18T03:39:21.263Z,77.00
2022-09-18T03:41:52.224Z,76.95
2022-09-18T03:44:20.958Z,76.29
2022-09-18T03:46:49.469Z,76.58
2022-09-18T03:49:18.144Z,76.62
2022-09-18T03:51:47.005Z,76.70
2022-09-18T03:54:15.956Z,76.59
2022-09-18T03:56:44.608Z,76.55
2022-09-18T03:59:29.022Z,76.04
2022-09-18T04:02:12.776Z,76.34
2022-09-18T04:05:00.188Z,76.39
2022-09-18T04:07:49.335Z,76.26
2022-09-18T04:10:37.699Z,76.64
2022-09-18T04:13:06.986Z,77.12
2022-09-18T04:15:37.218Z,76.92
2022-09-18T04:18:06.211Z,76.30
2022-09-18T04:20:34.792Z,76.15
2022-09-18T04:23:05.078Z,76.61
2022-09-18T04:25:37.410Z,76.99
2022-09-18T04:28:06.830Z,76.35
2022-09-18T04:30:42.230Z,76.54
2022-09-18T04:33:11.287Z,76.11
2022-09-18T04:35:41.424Z,76.67
2022-09-18T04:38:10.581Z,76.90
2022-09-18T04:40:40.130Z,77.28
2022-09-18T04:43:11.099Z,77.24
2022-09-18T04:45:40.763Z,76.36
2022-09-18T04:48:10.973Z,77.32
2022-09-18T04:50:40.248Z,76.43
2022-09-18T04:53:17.099Z,76.52
2022-09-18T04:55:47.781Z,76.86
2022-09-18T04:58:20.008Z,76.95
2022-09-18T05:00:52.245Z,76.18
2022-09-18T05:03:22.112Z,76.67
2022-09-18T05:05:51.522Z,76.98
2022-09-18T05:08:20.210Z,77.06
2022-09-18T05:10:48.676Z,77.20
2022-09-18T05:13:18.197Z,76.53
2022-09-18T05:16:01.499Z,77.37
2022-09-18T05:18:31.861Z,76.75
2022-09-18T05:21:03.753Z,77.08
2022-09-18T05:23:34.000Z,76.94
2022-09-18T05:26:02.775Z,76.77
2022-09-18T05:28:31.282Z,76.74
2022-09-18T05:31:00.789Z,76.78
2022-09-18T05:33:41.271Z,76.10
2022-09-18T05:36:10.041Z,76.11
2022-09-18T05:38:41.401Z,76.77
2022-09-18T05:41:10.443Z,77.08
2022-09-18T05:43:43.107Z,76.83
2022-09-18T05:46:12.059Z,76.19
2022-09-18T05:48:48.115Z,77.27
2022-09-18T05:51:17.342Z,76.35
2022-09-18T05:53:47.841Z,77.34
2022-09-18T05:56:21.756Z,77.18
2022-09-18T05:58:50.806Z,76.45
2022-09-18T06:01:19.430Z,76.32
2022-09-18T06:04:11.667Z,77.09
2022-09-18T06:06:47.222Z,76.70
2022-09-18T06:09:16.413Z,77.04
2022-09-18T06:11:44.805Z,76.47
2022-09-18T06:14:13.319Z,76.92
2022-09-18T06:16:42.735Z,76.24
2022-09-18T06:19:14.041Z,76.62
2022-09-18T06:21:44.400Z,76.91
2022-09-18T06:24:14.775Z,76.25
2022-09-18T06:26:50.146Z,77.02
2022-09-18T06:29:18.640Z,77.13
2022-09-18T06:31:51.412Z,76.73
2022-09-18T06:34:23.392Z,76.88
2022-09-18T06:36:55.131Z,76.57
2022-09-18T06:39:31.066Z,76.29
2022-09-18T06:42:00.600Z,77.16
2022-09-18T06:45:09.724Z,76.69
2022-09-18T06:47:40.949Z,77.27
2022-09-18T06:50:10.247Z,76.86
2022-09-18T06:52:39.559Z,76.83
2022-09-18T06:55:10.385Z,77.24
2022-09-18T06:57:38.912Z,76.81
2022-09-18T07:00:10.763Z,76.96
2022-09-18T07:02:40.601Z,76.86
2022-09-18T07:05:33.553Z,76.83
2022-09-18T07:08:03.003Z,76.71
2022-09-18T07:10:32.713Z,76.53
2022-09-18T07:13:02.154Z,77.22
2022-09-18T07:15:31.347Z,77.32
2022-09-18T07:18:02.260Z,76.39
2022-09-18T07:20:31.898Z,76.49
2022-09-18T07:23:02.290Z,76.43
2022-09-18T07:25:41.500Z,76.79
2022-09-18T07:28:12.596Z,77.24
2022-09-18T07:30:46.480Z,77.00
2022-09-18T07:33:16.808Z,76.29
2022-09-18T07:35:48.253Z,76.29
2022-09-18T07:38:19.230Z,77.06
2022-09-18T07:40:52.527Z,76.74
2022-09-18T07:43:43.905Z,76.87
2022-09-18T07:46:12.543Z,76.65
2022-09-18T07:48:44.154Z,76.42
2022-09-18T07:51:17.254Z,76.31
2022-09-18T07:53:49.007Z,77.10
2022-09-18T07:56:23.438Z,76.17
2022-09-18T07:58:52.204Z,76.23
2022-09-18T08:01:26.555Z,76.90
2022-09-18T08:03:57.595Z,76.06
2022-09-18T08:06:38.474Z,77.20
2022-09-18T08:09:18.188Z,76.55
2022-09-18T08:12:03.082Z,76.63
2022-09-18T08:14:31.638Z,76.12
2022-09-18T08:17:20.803Z,77.06
2022-09-18T08:20:18.528Z,77.23
2022-09-18T08:22:53.270Z,76.61
2022-09-18T08:25:27.760Z,76.57
2022-09-18T08:28:01.137Z,77.30
2022-09-18T08:30:47.213Z,76.99
2022-09-18T08:33:16.146Z,76.86
2022-09-18T08:35:45.710Z,76.79
2022-09-18T08:38:36.252Z,76.63
2022-09-18T08:41:28.185Z,76.42
2022-09-18T08:44:07.176Z,76.95
2022-09-18T08:46:42.608Z,77.28
2022-09-18T08:49:23.334Z,76.72
2022-09-18T08:51:59.593Z,76.83
2022-09-18T08:54:47.735Z,77.36
2022-09-18T08:57:35.940Z,76.42
2022-09-18T09:00:19.042Z,76.58
2022-09-18T09:03:06.937Z,76.72
2022-09-18T09:05:45.614Z,76.82
2022-09-18T09:08:40.436Z,77.18
2022-09-18T09:11:17.574Z,76.71
2022-09-18T09:14:07.359Z,76.94
2022-09-18T09:16:43.538Z,77.43
2022-09-18T09:19:26.970Z,76.90
2022-09-18T09:22:03.913Z,76.49
2022-09-18T09:24:36.240Z,76.56
2022-09-18T09:27:38.306Z,76.84
2022-09-18T09:30:15.923Z,76.19
2022-09-18T09:33:20.636Z,76.38
2022-09-18T09:36:15.034Z,76.78
2022-09-18T09:38:52.817Z,75.96
2022-09-18T09:41:30.407Z,76.70
2022-09-18T09:44:27.014Z,76.24
2022-09-18T09:47:04.446Z,76.26
2022-09-18T09:49:39.371Z,76.22
2022-09-18T09:52:15.637Z,75.75
2022-09-18T09:54:45.410Z,75.66
2022-09-18T09:57:25.779Z,74.99
2022-09-18T10:00:05.023Z,74.98
2022-09-18T10:03:20.435Z,74.68
2022-09-18T10:05:57.975Z,74.78
2022-09-18T10:08:38.075Z,74.99
2022-09-18T10:11:11.287Z,75.24
2022-09-18T10:13:45.732Z,74.73
2022-09-18T10:16:19.593Z,74.07
2022-09-18T10:18:50.073Z,74.45
2022-09-18T10:21:21.326Z,74.29
2022-09-18T10:23:56.063Z,74.41
2022-09-18T10:26:32.549Z,74.20
2022-09-18T10:29:02.684Z,74.09
2022-09-18T10:31:48.533Z,73.88
2022-09-18T10:34:42.433Z,73.75
2022-09-18T10:37:17.154Z,73.93
2022-09-18T10:39:51.368Z,73.42
2022-09-18T10:42:23.592Z,73.90
2022-09-18T10:45:02.063Z,73.14
2022-09-18T10:47:35.777Z,74.18
2022-09-18T10:50:17.998Z,73.70
2022-09-18T10:52:49.810Z,73.16
2022-09-18T10:55:28.103Z,73.20
2022-09-18T10:58:13.413Z,73.39
2022-09-18T11:00:53.204Z,73.99
2022-09-18T11:03:37.742Z,73.26
2022-09-18T11:06:17.239Z,73.64
2022-09-18T11:08:50.273Z,72.67
2022-09-18T11:11:26.948Z,72.78
2022-09-18T11:14:00.710Z,72.64
2022-09-18T11:16:39.221Z,72.49
2022-09-18T11:19:18.778Z,72.50
2022-09-18T11:21:50.234Z,72.38
2022-09-18T11:24:25.073Z,72.51
2022-09-18T11:26:59.644Z,71.90
2022-09-18T11:29:32.405Z,71.29
2022-09-18T11:32:13.177Z,72.13
2022-09-18T11:34:48.247Z,71.66
2022-09-18T11:37:30.084Z,71.57
2022-09-18T11:40:05.288Z,71.68
2022-09-18T11:42:41.607Z,71.73
2022-09-18T11:45:33.343Z,71.16
2022-09-18T11:48:13.134Z,70.72
2022-09-18T11:50:43.395Z,71.13
2022-09-18T11:53:15.851Z,70.62
2022-09-18T11:55:49.669Z,71.20
2022-09-18T11:58:22.178Z,71.16
2022-09-18T12:00:55.333Z,70.60
2022-09-18T12:03:29.085Z,70.92
2022-09-18T12:06:02.403Z,70.23
2022-09-18T12:08:43.148Z,70.44
2022-09-18T12:11:31.727Z,70.54
2022-09-18T12:14:09.421Z,69.99
2022-09-18T12:16:46.014Z,69.76
2022-09-18T12:19:22.175Z,69.57
2022-09-18T12:21:58.129Z,69.57
2022-09-18T12:24:27.384Z,69.69
2022-09-18T12:27:24.162Z,69.59
2022-09-18T12:30:07.206Z,69.57
2022-09-18T12:33:04.731Z,69.19
2022-09-18T12:36:02.447Z,68.88
2022-09-18T12:38:46.701Z,69.68
2022-09-18T12:41:33.128Z,68.60
2022-09-18T12:44:28.446Z,69.41
2022-09-18T12:47:11.812Z,69.16
2022-09-18T12:50:02.732Z,68.65
2022-09-18T12:53:06.255Z,68.71
2022-09-18T12:55:48.680Z,68.82
2022-09-18T12:58:41.471Z,69.01
2022-09-18T13:01:27.622Z,68.82
2022-09-18T13:04:04.657Z,69.06
2022-09-18T13:06:39.251Z,69.02
2022-09-18T13:09:22.694Z,68.55
2022-09-18T13:11:58.655Z,68.07
2022-09-18T13:14:32.327Z,68.94
2022-09-18T13:17:08.072Z,68.67
2022-09-18T13:19:43.205Z,68.00
2022-09-18T13:22:17.328Z,68.80
2022-09-18T13:24:54.634Z,68.79
2022-09-18T13:27:24.836Z,68.60
2022-09-18T13:29:58.834Z,67.90
2022-09-18T13:32:41.545Z,67.75
2022-09-18T13:35:24.532Z,68.52
2022-09-18T13:38:14.254Z,68.16
2022-09-18T13:40:45.652Z,68.34
2022-09-18T13:43:19.658Z,68.97
2022-09-18T13:45:49.072Z,68.46
2022-09-18T13:48:23.027Z,68.96
2022-09-18T13:50:55.082Z,69.11
2022-09-18T13:53:40.598Z,68.21
2022-09-18T13:56:11.599Z,68.14
2022-09-18T13:58:51.855Z,68.35
2022-09-18T14:01:54.689Z,69.15
2022-09-18T14:05:10.083Z,68.54
2022-09-18T14:07:54.915Z,68.24
2022-09-18T14:10:37.094Z,69.10
2022-09-18T14:13:41.207Z,69.02
2022-09-18T14:16:25.919Z,69.25
2022-09-18T14:19:04.149Z,68.52
2022-09-18T14:21:38.462Z,69.40
2022-09-18T14:24:42.477Z,69.43
2022-09-18T14:27:34.367Z,69.01
2022-09-18T14:30:14.662Z,68.48
2022-09-18T14:32:48.774Z,68.37
2022-09-18T14:35:22.689Z,68.92
2022-09-18T14:37:51.552Z,68.29
2022-09-18T14:40:27.209Z,68.76
2022-09-18T14:42:57.311Z,69.10
2022-09-18T14:45:30.167Z,69.23
2022-09-18T14:48:18.749Z,68.71
2022-09-18T14:50:59.595Z,69.05
2022-09-18T14:53:29.404Z,69.30
2022-09-18T14:56:00.610Z,69.29
2022-09-18T14:58:36.335Z,68.92
2022-09-18T15:01:07.421Z,69.30
2022-09-18T15:03:39.638Z,69.14
2022-09-18T15:06:16.609Z,69.46
2022-09-18T15:08:48.630Z,69.17
2022-09-18T15:11:20.694Z,70.11
2022-09-18T15:13:52.852Z,69.59
2022-09-18T15:16:26.754Z,69.30
2022-09-18T15:18:56.421Z,69.31
2022-09-18T15:21:32.326Z,70.23
2022-09-18T15:24:03.302Z,70.53
2022-09-18T15:26:36.254Z,69.61
2022-09-18T15:29:12.767Z,69.74
2022-09-18T15:31:42.871Z,69.59
2022-09-18T15:34:16.923Z,69.66
2022-09-18T15:36:45.021Z,70.35
2022-09-18T15:39:31.370Z,69.96
2022-09-18T15:42:18.214Z,69.26
2022-09-18T15:45:21.569Z,69.61
2022-09-18T15:47:50.696Z,70.30
2022-09-18T15:50:38.121Z,70.44
2022-09-18T15:53:27.035Z,70.29
2022-09-18T15:56:01.019Z,69.87
2022-09-18T15:58:41.769Z,70.44
2022-09-18T16:01:19.925Z,70.56
2022-09-18T16:03:56.633Z,69.65
2022-09-18T16:06:28.647Z,70.00
2022-09-18T16:08:58.004Z,70.19
2022-09-18T16:11:44.750Z,71.14
2022-09-18T16:14:38.819Z,70.38
2022-09-18T16:17:37.106Z,71.29
2022-09-18T16:20:29.477Z,70.30
2022-09-18T16:23:06.528Z,70.10
2022-09-18T16:25:37.482Z,69.84
2022-09-18T16:28:14.651Z,70.10
2022-09-18T16:30:46.584Z,69.97
2022-09-18T16:33:18.802Z,70.79
2022-09-18T16:35:54.378Z,70.89
2022-09-18T16:38:23.295Z,71.21
2022-09-18T16:40:52.116Z,70.15
2022-09-18T16:43:21.066Z,70.52
2022-09-18T16:45:50.045Z,70.26
2022-09-18T16:48:19.419Z,71.12
2022-09-18T16:50:48.151Z,71.43
2022-09-18T16:53:17.105Z,70.78
2022-09-18T16:55:49.616Z,70.60
2022-09-18T16:58:20.949Z,70.67
2022-09-18T17:00:49.761Z,70.78
2022-09-18T17:03:19.044Z,70.64
2022-09-18T17:05:47.663Z,70.28
2022-09-18T17:08:16.820Z,71.39
2022-09-18T17:10:46.637Z,70.41
2022-09-18T17:13:15.738Z,71.63
2022-09-18T17:15:45.036Z,70.45
2022-09-18T17:18:14.137Z,70.79
2022-09-18T17:20:45.472Z,70.82
2022-09-18T17:23:14.332Z,71.67
2022-09-18T17:25:43.774Z,71.36
2022-09-18T17:28:12.545Z,71.17
2022-09-18T17:30:42.674Z,70.65
2022-09-18T17:33:11.493Z,71.50
2022-09-18T17:35:40.425Z,71.07
2022-09-18T17:38:09.236Z,71.08
2022-09-18T17:40:38.027Z,71.06
2022-09-18T17:43:06.913Z,71.91
2022-09-18T17:45:35.995Z,71.07
2022-09-18T17:48:05.086Z,71.25
2022-09-18T17:50:35.533Z,71.44
2022-09-18T17:53:04.244Z,72.01
2022-09-18T17:55:34.698Z,71.68
2022-09-18T17:58:03.739Z,71.33
2022-09-18T18:00:32.394Z,71.58
2022-09-18T18:03:01.186Z,72.05
2022-09-18T18:05:29.780Z,71.52
2022-09-18T18:07:59.110Z,71.92
2022-09-18T18:10:28.945Z,72.06
2022-09-18T18:12:58.944Z,72.12
2022-09-18T18:15:28.636Z,71.64
2022-09-18T18:17:59.404Z,71.81
2022-09-18T18:20:28.217Z,72.15
2022-09-18T18:22:57.123Z,72.20
2022-09-18T18:25:27.175Z,71.74
2022-09-18T18:27:56.990Z,71.81
2022-09-18T18:30:26.912Z,72.51
2022-09-18T18:32:57.556Z,72.38
2022-09-18T18:35:26.367Z,71.86
2022-09-18T18:37:55.206Z,72.20
2022-09-18T18:40:24.238Z,72.60
2022-09-18T18:42:54.388Z,72.46
2022-09-18T18:45:23.131Z,72.26
2022-09-18T18:47:51.807Z,72.43
2022-09-18T18:50:21.604Z,71.94
2022-09-18T18:52:52.270Z,72.30
2022-09-18T18:55:20.710Z,72.10
2022-09-18T18:57:49.455Z,72.82
2022-09-18T19:00:18.643Z,73.24
2022-09-18T19:02:49.762Z,72.18
2022-09-18T19:05:22.760Z,73.21
2022-09-18T19:07:52.049Z,72.92
2022-09-18T19:10:21.073Z,72.44
2022-09-18T19:12:57.431Z,73.00
2022-09-18T19:15:27.268Z,72.93
2022-09-18T19:18:01.741Z,73.23
2022-09-18T19:20:30.535Z,73.50
2022-09-18T19:22:59.505Z,72.94
2022-09-18T19:25:29.749Z,73.56
2022-09-18T19:28:01.269Z,73.09
2022-09-18T19:30:29.821Z,73.37
2022-09-18T19:32:59.124Z,73.10
2022-09-18T19:35:27.892Z,73.31
2022-09-18T19:37:56.595Z,72.71
2022-09-18T19:40:31.491Z,73.43
2022-09-18T19:43:03.122Z,73.37
2022-09-18T19:45:34.504Z,73.07
2022-09-18T19:48:07.453Z,73.02
2022-09-18T19:50:38.793Z,73.44
2022-09-18T19:53:07.298Z,73.64
2022-09-18T19:55:35.809Z,73.42
2022-09-18T19:58:04.379Z,73.59
2022-09-18T20:00:33.278Z,74.28
2022-09-18T20:03:01.911Z,73.86
2022-09-18T20:05:30.391Z,73.83
2022-09-18T20:08:00.929Z,74.37
2022-09-18T20:10:29.392Z,74.72
2022-09-18T20:12:58.634Z,73.91
2022-09-18T20:15:27.473Z,73.96
2022-09-18T20:17:58.106Z,74.25
2022-09-18T20:20:28.013Z,74.17
2022-09-18T20:22:56.964Z,73.73
2022-09-18T20:25:25.613Z,74.82
2022-09-18T20:27:54.648Z,74.64
2022-09-18T20:30:23.306Z,74.46
2022-09-18T20:32:54.633Z,74.73
2022-09-18T20:35:23.842Z,74.13
2022-09-18T20:37:52.732Z,74.54
2022-09-18T20:40:21.399Z,74.57
2022-09-18T20:42:51.494Z,74.42
2022-09-18T20:45:21.097Z,75.16
2022-09-18T20:47:49.534Z,74.36
2022-09-18T20:50:23.308Z,75.20
2022-09-18T20:52:51.775Z,75.44
2022-09-18T20:55:20.307Z,74.94
2022-09-18T20:57:49.569Z,74.90
2022-09-18T21:00:18.232Z,75.65
2022-09-18T21:02:53.163Z,74.73
2022-09-18T21:05:23.280Z,75.70
2022-09-18T21:07:57.960Z,75.43
2022-09-18T21:10:28.569Z,74.78
2022-09-18T21:12:58.401Z,74.77
2022-09-18T21:15:28.169Z,75.41
2022-09-18T21:17:59.040Z,75.63
2022-09-18T21:20:27.591Z,75.98
2022-09-18T21:23:14.739Z,76.02
2022-09-18T21:25:46.167Z,75.56
2022-09-18T21:28:14.672Z,75.74
2022-09-18T21:30:43.174Z,75.46
2022-09-18T21:33:13.923Z,74.98
2022-09-18T21:35:50.993Z,75.15
2022-09-18T21:38:19.474Z,75.29
2022-09-18T21:40:48.305Z,75.90
2022-09-18T21:43:16.940Z,76.23
2022-09-18T21:45:45.839Z,76.03
2022-09-18T21:48:14.319Z,76.37
2022-09-18T21:50:43.372Z,75.51
2022-09-18T21:53:12.406Z,75.26
2022-09-18T21:55:41.014Z,75.82
2022-09-18T21:58:09.849Z,75.42
2022-09-18T22:00:38.320Z,75.70
2022-09-18T22:03:06.895Z,75.66
2022-09-18T22:05:36.452Z,76.03
2022-09-18T22:08:05.015Z,76.65
2022-09-18T22:10:34.706Z,76.32
2022-09-18T22:13:03.280Z,76.07
2022-09-18T22:15:31.927Z,76.38
2022-09-18T22:18:00.449Z,76.12
2022-09-18T22:20:28.981Z,75.73
2022-09-18T22:22:57.462Z,75.82
2022-09-18T22:25:26.052Z,76.25
2022-09-18T22:27:54.681Z,76.12
2022-09-18T22:30:23.343Z,76.49
2022-09-18T22:32:51.854Z,76.09
2022-09-18T22:35:20.390Z,75.85
2022-09-18T22:37:48.920Z,75.85
2022-09-18T22:40:17.609Z,75.60
2022-09-18T22:42:46.394Z,75.77
2022-09-18T22:45:15.018Z,76.29
2022-09-18T22:47:43.762Z,75.78
2022-09-18T22:50:14.191Z,76.19
2022-09-18T22:52:43.037Z,76.23
2022-09-18T22:55:12.236Z,76.79
2022-09-18T22:57:41.099Z,75.82
2022-09-18T23:00:14.708Z,76.03
2022-09-18T23:02:46.233Z,75.83
2022-09-18T23:05:15.279Z,76.30
2022-09-18T23:07:43.875Z,76.02
2022-09-18T23:10:13.776Z,76.12
2022-09-18T23:12:42.233Z,76.46
2022-09-18T23:15:16.932Z,76.19
2022-09-18T23:17:47.894Z,75.44
2022-09-18T23:20:17.008Z,75.65
2022-09-18T23:22:45.704Z,76.25
2022-09-18T23:25:14.435Z,75.89
2022-09-18T23:27:43.551Z,75.88
2022-09-18T23:30:13.143Z,75.74
2022-09-18T23:32:41.728Z,76.20
2022-09-18T23:35:10.478Z,76.23
2022-09-18T23:37:38.867Z,75.47
2022-09-18T23:40:10.052Z,75.91
2022-09-18T23:42:39.062Z,76.11
2022-09-18T23:45:09.675Z,76.29
2022-09-18T23:47:38.075Z,76.15
2022-09-18T23:50:08.547Z,75.79
2022-09-18T23:52:37.163Z,76.26
2022-09-18T23:55:06.400Z,75.83
2022-09-18T23:57:35.563Z,76.11
